Time;durP1;ratioP1;P1;durP2;ratioP2;P2;SDS_P1;SDS_P2;PMS_P1;PMS_P2;Temp;Humidity;BMP_temperature;BMP_pressure;BME280_temperature;BME280_humidity;BME280_pressure;Samples;Min_cycle;Max_cycle;Signal;HPM_P1;HPM_P2
2023/06/20 00:01:33;;;;;;;11.80;8.98;;;19.90;99.90;;;;;;5054051;28;20025;-67
2023/06/20 00:03:58;;;;;;;11.18;9.98;;;19.90;1.00;;;;;;5054199;28;20029;-68
2023/06/20 00:06:24;;;;;;;11.48;9.93;;;19.90;1.00;;;;;;5054402;28;20041;-67
2023/06/20 00:08:50;;;;;;;16.08;10.48;;;19.90;1.00;;;;;;5054127;28;20122;-68
2023/06/20 00:11:16;;;;;;;13.98;10.38;;;20.00;1.00;;;;;;5054323;28;20036;-68
2023/06/20 00:13:42;;;;;;;13.52;10.57;;;20.00;99.90;;;;;;5053923;28;20045;-68
2023/06/20 00:16:09;;;;;;;13.20;10.18;;;20.00;99.90;;;;;;5054343;28;20053;-68
2023/06/20 00:18:35;;;;;;;11.38;10.05;;;20.10;99.90;;;;;;5054138;28;20024;-67
2023/06/20 00:21:01;;;;;;;12.52;9.85;;;20.10;99.90;;;;;;5053894;28;20103;-67
2023/06/20 00:23:29;;;;;;;13.57;9.57;;;20.10;99.90;;;;;;5054079;28;20021;-68
2023/06/20 00:25:55;;;;;;;11.05;9.93;;;20.10;99.90;;;;;;5054005;28;20029;-68
2023/06/20 00:28:21;;;;;;;13.20;9.38;;;20.20;89.10;;;;;;5053566;28;20025;-67
2023/06/20 00:30:46;;;;;;;12.68;9.27;;;20.20;27.60;;;;;;5054031;28;20025;-68
2023/06/20 00:33:12;;;;;;;12.20;8.85;;;20.30;1.00;;;;;;5053709;28;20033;-67
2023/06/20 00:35:37;;;;;;;10.27;8.57;;;20.30;1.00;;;;;;5053304;28;20056;-68
2023/06/20 00:38:03;;;;;;;10.30;8.63;;;20.40;1.00;;;;;;5053833;28;20024;-67
2023/06/20 00:40:29;;;;;;;13.75;9.80;;;20.40;1.00;;;;;;5053775;28;20021;-67
2023/06/20 00:42:55;;;;;;;11.52;9.23;;;20.50;1.00;;;;;;5053511;28;20112;-67
2023/06/20 00:45:32;;;;;;;10.50;9.40;;;20.50;99.90;;;;;;5053487;28;20029;-67
2023/06/20 00:47:59;;;;;;;10.55;9.40;;;20.50;99.90;;;;;;5053683;28;20067;-67
2023/06/20 00:50:27;;;;;;;12.13;9.57;;;20.60;99.90;;;;;;5053238;28;20380;-67
2023/06/20 00:52:57;;;;;;;12.60;9.27;;;20.60;61.60;;;;;;5053136;28;20429;-68
2023/06/20 00:55:23;;;;;;;11.95;10.60;;;20.70;99.90;;;;;;5053390;28;20021;-67
2023/06/20 00:57:49;;;;;;;14.98;10.65;;;20.70;24.70;;;;;;5053570;28;20390;-67
2023/06/20 01:00:14;;;;;;;13.95;11.75;;;20.70;16.00;;;;;;5053056;28;20021;-67
2023/06/20 01:02:46;;;;;;;13.27;11.35;;;20.70;99.90;;;;;;5053407;28;20100;-68
2023/06/20 01:05:14;;;;;;;11.95;10.70;;;20.70;99.90;;;;;;5053434;28;20471;-68
2023/06/20 01:07:50;;;;;;;13.93;11.18;;;20.60;1.00;;;;;;5053385;28;20024;-67
2023/06/20 01:10:31;;;;;;;14.10;10.85;;;20.60;1.00;;;;;;5053388;28;20033;-67
2023/06/20 01:13:09;;;;;;;12.20;10.80;;;20.50;1.00;;;;;;5053018;28;20140;-67
2023/06/20 01:15:42;;;;;;;11.88;10.77;;;20.50;99.90;;;;;;5053277;28;20043;-67
2023/06/20 01:18:33;;;;;;;14.52;11.35;;;20.50;99.90;;;;;;5053285;28;20021;-67
2023/06/20 01:21:07;;;;;;;12.95;10.82;;;20.60;99.90;;;;;;5053253;28;20033;-67
2023/06/20 01:23:41;;;;;;;12.23;10.95;;;20.60;99.90;;;;;;5053076;28;20032;-67
2023/06/20 01:26:20;;;;;;;11.43;10.23;;;20.60;52.30;;;;;;5053176;28;20024;-67
2023/06/20 01:29:07;;;;;;;12.10;10.90;;;20.70;99.90;;;;;;5053202;28;20060;-68
2023/06/20 01:31:37;;;;;;;12.57;11.25;;;20.70;99.90;;;;;;5053096;28;20458;-67
2023/06/20 01:34:08;;;;;;;13.77;10.80;;;20.70;99.90;;;;;;5052803;28;20025;-67
2023/06/20 01:36:39;;;;;;;13.93;11.30;;;20.70;99.90;;;;;;5053119;28;20053;-67
2023/06/20 01:39:09;;;;;;;12.23;10.95;;;20.60;99.90;;;;;;5053073;28;20025;-67
2023/06/20 01:41:37;;;;;;;13.48;11.15;;;20.60;99.90;;;;;;5052871;28;20028;-67
2023/06/20 01:44:06;;;;;;;13.18;11.77;;;20.60;99.90;;;;;;5053114;28;20043;-68
2023/06/20 01:46:33;;;;;;;14.45;12.35;;;20.60;1.00;;;;;;5052827;28;20145;-68
2023/06/20 01:49:00;;;;;;;13.60;11.73;;;20.60;1.00;;;;;;5052583;28;20033;-67
2023/06/20 01:51:28;;;;;;;14.35;11.45;;;20.50;1.00;;;;;;5053023;28;20482;-67
2023/06/20 01:53:55;;;;;;;13.77;11.73;;;20.60;1.00;;;;;;5052562;28;20191;-68
2023/06/20 01:56:24;;;;;;;12.57;10.68;;;20.60;99.90;;;;;;5054517;28;20479;-67
2023/06/20 01:58:51;;;;;;;14.20;10.93;;;20.50;99.90;;;;;;5056401;28;20036;-67
2023/06/20 02:01:18;;;;;;;11.65;10.50;;;20.60;99.90;;;;;;5056620;28;20035;-67
2023/06/20 02:03:45;;;;;;;12.57;11.25;;;20.60;99.90;;;;;;5056836;28;20078;-67
2023/06/20 02:06:13;;;;;;;11.80;10.68;;;20.60;99.90;;;;;;5056591;28;20116;-67
2023/06/20 02:08:40;;;;;;;13.98;11.45;;;20.60;99.90;;;;;;5056626;28;20029;-67
2023/06/20 02:11:07;;;;;;;12.60;11.40;;;20.60;99.90;;;;;;5056589;28;20057;-67
2023/06/20 02:13:36;;;;;;;12.27;11.02;;;20.50;99.90;;;;;;5055979;28;20049;-68
2023/06/20 02:16:05;;;;;;;12.20;9.82;;;20.60;99.90;;;;;;5056085;28;20367;-67
2023/06/20 02:18:32;;;;;;;12.20;10.98;;;20.60;99.90;;;;;;5056448;28;20429;-67
2023/06/20 02:21:04;;;;;;;11.75;10.45;;;20.70;1.00;;;;;;5056365;28;20032;-67
2023/06/20 02:23:30;;;;;;;11.90;10.65;;;20.70;1.00;;;;;;5056302;28;20506;-67
2023/06/20 02:26:07;;;;;;;11.65;10.52;;;20.70;1.00;;;;;;5056306;28;20486;-67
2023/06/20 02:28:34;;;;;;;13.27;10.85;;;20.80;1.00;;;;;;5056235;28;20029;-67
2023/06/20 02:31:00;;;;;;;16.60;11.68;;;20.80;99.90;;;;;;5055848;28;20032;-68
2023/06/20 02:33:32;;;;;;;15.32;12.23;;;20.70;1.00;;;;;;5056136;28;20487;-67
2023/06/20 02:36:00;;;;;;;16.88;14.07;;;20.40;99.90;;;;;;5055957;28;20521;-69
2023/06/20 02:38:26;;;;;;;19.52;17.45;;;20.20;99.90;;;;;;5056073;28;20021;-68
2023/06/20 02:40:51;;;;;;;24.48;19.42;;;19.70;1.00;;;;;;5055902;28;20108;-68
2023/06/20 02:43:17;;;;;;;22.00;19.60;;;19.30;1.00;;;;;;5055837;28;20036;-68
2023/06/20 02:45:45;;;;;;;27.80;22.10;;;19.10;19.60;;;;;;5055893;28;20078;-68
2023/06/20 02:48:31;;;;;;;24.77;21.90;;;19.00;41.00;;;;;;5055839;28;20475;-68
2023/06/20 02:51:22;;;;;;;24.55;21.98;;;18.90;62.70;;;;;;5055880;28;20025;-68
2023/06/20 02:54:03;;;;;;;28.75;23.88;;;19.00;82.90;;;;;;5055515;28;20032;-68
2023/06/20 02:56:31;;;;;;;28.83;25.85;;;19.00;99.90;;;;;;5055966;28;20116;-68
2023/06/20 02:58:57;;;;;;;32.58;28.23;;;19.00;99.90;;;;;;5055765;28;20044;-68
2023/06/20 03:01:25;;;;;;;31.65;26.80;;;18.90;99.90;;;;;;5055526;28;20056;-68
2023/06/20 03:03:54;;;;;;;30.83;27.58;;;18.90;99.90;;;;;;5055687;28;20028;-68
2023/06/20 03:06:30;;;;;;;31.13;28.08;;;18.80;99.90;;;;;;5055125;28;20112;-69
2023/06/20 03:08:58;;;;;;;34.47;30.77;;;18.70;99.90;;;;;;5055453;28;20036;-68
2023/06/20 03:11:23;;;;;;;34.45;30.95;;;18.80;99.90;;;;;;5055315;28;20159;-69
2023/06/20 03:13:50;;;;;;;35.03;31.45;;;18.80;99.90;;;;;;5055012;28;20132;-69
2023/06/20 03:16:15;;;;;;;34.97;31.48;;;18.80;99.90;;;;;;5055430;28;20029;-68
2023/06/20 03:18:41;;;;;;;35.25;31.52;;;18.80;99.90;;;;;;5055363;28;20383;-69
2023/06/20 03:21:06;;;;;;;36.30;32.60;;;18.80;99.90;;;;;;5055028;28;20386;-69
2023/06/20 03:23:32;;;;;;;37.72;33.80;;;18.70;99.90;;;;;;5055012;28;20025;-69
2023/06/20 03:25:58;;;;;;;42.72;34.67;;;18.70;99.90;;;;;;5055190;28;20479;-69
2023/06/20 03:28:24;;;;;;;39.95;35.95;;;18.70;99.90;;;;;;5055146;28;20383;-69
2023/06/20 03:30:51;;;;;;;37.40;33.78;;;18.70;99.90;;;;;;5054961;28;20081;-69
2023/06/20 03:33:16;;;;;;;39.95;35.22;;;18.80;99.90;;;;;;5054883;28;20055;-69
2023/06/20 03:35:42;;;;;;;36.53;32.67;;;18.70;99.90;;;;;;5054812;28;20057;-69
2023/06/20 03:38:07;;;;;;;37.97;33.97;;;18.70;99.90;;;;;;5054981;28;20029;-69
2023/06/20 03:40:33;;;;;;;45.42;35.25;;;18.60;99.90;;;;;;5054833;28;20017;-69
2023/06/20 03:42:59;;;;;;;40.22;35.95;;;18.60;99.90;;;;;;5054954;28;20021;-69
2023/06/20 03:45:24;;;;;;;38.33;34.38;;;18.70;99.90;;;;;;5054811;28;20025;-69
2023/06/20 03:47:50;;;;;;;40.53;34.67;;;18.70;99.90;;;;;;5054770;28;20029;-69
2023/06/20 03:50:15;;;;;;;37.33;33.42;;;18.70;99.90;;;;;;5054442;28;20021;-69
2023/06/20 03:52:41;;;;;;;36.92;33.25;;;18.70;99.90;;;;;;5054745;28;20025;-69
2023/06/20 03:55:07;;;;;;;36.70;33.10;;;18.60;99.90;;;;;;5054104;28;20029;-69
2023/06/20 03:57:32;;;;;;;36.35;32.83;;;18.70;99.90;;;;;;5054472;28;20020;-69
2023/06/20 03:59:58;;;;;;;40.53;36.40;;;18.70;99.90;;;;;;5054428;28;20021;-68
2023/06/20 04:02:24;;;;;;;40.28;36.15;;;18.80;99.90;;;;;;5054313;28;20033;-68
2023/06/20 04:04:50;;;;;;;38.95;35.05;;;18.90;99.90;;;;;;5054355;28;20029;-68
2023/06/20 04:07:18;;;;;;;38.13;34.33;;;18.90;99.90;;;;;;5054168;28;20021;-68
2023/06/20 04:09:45;;;;;;;39.17;35.17;;;19.00;99.90;;;;;;5054013;28;20029;-68
2023/06/20 04:12:10;;;;;;;39.75;35.38;;;19.00;99.90;;;;;;5054142;28;20112;-68
2023/06/20 04:14:36;;;;;;;39.13;35.25;;;19.00;99.90;;;;;;5053715;28;20124;-68
2023/06/20 04:17:01;;;;;;;38.65;34.85;;;19.00;99.90;;;;;;5054020;28;20053;-68
2023/06/20 04:19:27;;;;;;;38.17;34.30;;;19.10;99.90;;;;;;5053002;28;20391;-68
2023/06/20 04:21:52;;;;;;;35.92;32.40;;;19.10;99.90;;;;;;5053920;28;20063;-68
2023/06/20 04:24:18;;;;;;;36.65;32.90;;;19.10;99.90;;;;;;5053946;28;20478;-68
2023/06/20 04:26:43;;;;;;;37.22;33.35;;;19.00;99.90;;;;;;5053919;28;20033;-68
2023/06/20 04:29:09;;;;;;;36.67;33.03;;;19.10;99.90;;;;;;5053811;28;20501;-68
2023/06/20 04:31:34;;;;;;;33.83;30.33;;;19.10;99.90;;;;;;5053561;28;20482;-68
2023/06/20 04:34:00;;;;;;;33.70;30.50;;;19.00;99.90;;;;;;5053701;28;20078;-68
2023/06/20 04:36:26;;;;;;;33.10;29.65;;;19.00;99.90;;;;;;5053832;28;20033;-68
2023/06/20 04:38:52;;;;;;;34.67;30.98;;;18.90;99.90;;;;;;5053351;28;20024;-68
2023/06/20 04:41:18;;;;;;;31.92;28.92;;;18.90;99.90;;;;;;5053513;28;20031;-68
2023/06/20 04:43:44;;;;;;;33.88;30.58;;;18.90;99.90;;;;;;5053863;28;20025;-68
2023/06/20 04:46:13;;;;;;;33.08;29.77;;;19.00;99.90;;;;;;5053694;28;20509;-68
2023/06/20 04:48:39;;;;;;;34.17;30.83;;;19.00;99.90;;;;;;5053607;28;20028;-69
2023/06/20 04:51:07;;;;;;;32.65;29.42;;;19.00;99.90;;;;;;5053628;28;20090;-68
2023/06/20 04:53:35;;;;;;;33.72;30.23;;;19.10;99.90;;;;;;5053543;28;20032;-68
2023/06/20 04:56:01;;;;;;;32.67;29.25;;;19.10;99.90;;;;;;5053623;28;20036;-68
2023/06/20 04:58:28;;;;;;;34.08;30.67;;;19.10;99.90;;;;;;5053350;28;20025;-68
2023/06/20 05:00:56;;;;;;;31.02;28.02;;;19.10;99.90;;;;;;5053338;28;20017;-68
2023/06/20 05:03:22;;;;;;;32.88;29.63;;;19.10;99.90;;;;;;5053539;28;20379;-68
2023/06/20 05:05:48;;;;;;;30.65;27.75;;;19.30;99.90;;;;;;5053459;28;20028;-68
2023/06/20 05:08:13;;;;;;;30.25;27.35;;;19.40;99.90;;;;;;5053405;28;20368;-69
2023/06/20 05:10:39;;;;;;;29.35;26.48;;;19.50;99.90;;;;;;5053081;28;20029;-69
2023/06/20 05:13:04;;;;;;;28.42;25.65;;;19.60;99.90;;;;;;5052857;28;20057;-68
2023/06/20 05:15:30;;;;;;;27.10;24.52;;;19.70;99.90;;;;;;5053281;28;20039;-68
2023/06/20 05:17:55;;;;;;;25.90;23.60;;;19.70;99.90;;;;;;5052887;28;20021;-68
2023/06/20 05:20:21;;;;;;;26.73;23.85;;;19.80;99.90;;;;;;5053321;28;20391;-68
2023/06/20 05:22:47;;;;;;;25.70;23.08;;;19.90;99.90;;;;;;5053234;28;20100;-69
2023/06/20 05:25:12;;;;;;;27.05;24.35;;;20.00;99.90;;;;;;5053251;28;20033;-68
2023/06/20 05:27:38;;;;;;;25.77;23.48;;;20.10;99.90;;;;;;5052901;28;20483;-67
2023/06/20 05:30:05;;;;;;;23.60;21.30;;;20.00;99.90;;;;;;5054699;28;20035;-67
2023/06/20 05:32:30;;;;;;;22.02;20.02;;;20.10;99.90;;;;;;5057250;28;20029;-68
2023/06/20 05:34:56;;;;;;;22.63;20.63;;;20.30;99.90;;;;;;5057039;28;20025;-68
2023/06/20 05:37:21;;;;;;;25.65;20.05;;;20.60;99.90;;;;;;5057232;28;20033;-68
2023/06/20 05:39:47;;;;;;;20.48;18.40;;;20.80;99.90;;;;;;5057120;28;20474;-68
2023/06/20 05:42:12;;;;;;;18.80;16.92;;;20.90;99.90;;;;;;5057045;28;20032;-67
2023/06/20 05:44:38;;;;;;;18.23;16.60;;;21.10;99.90;;;;;;5056957;28;20037;-68
2023/06/20 05:47:04;;;;;;;16.55;15.00;;;21.40;99.90;;;;;;5057033;28;20035;-67
2023/06/20 05:49:30;;;;;;;17.60;15.95;;;21.50;86.10;;;;;;5056990;28;20034;-68
2023/06/20 05:51:57;;;;;;;16.77;15.05;;;21.50;84.70;;;;;;5056921;28;20033;-67
2023/06/20 05:54:23;;;;;;;15.57;14.15;;;21.50;55.90;;;;;;5056677;28;20055;-67
2023/06/20 05:56:49;;;;;;;17.13;15.45;;;21.40;48.90;;;;;;5056405;28;20028;-67
2023/06/20 05:59:15;;;;;;;16.25;14.68;;;21.40;53.00;;;;;;5056753;28;20057;-68
2023/06/20 06:01:41;;;;;;;17.83;16.13;;;21.50;79.60;;;;;;5056537;28;20060;-68
2023/06/20 06:04:07;;;;;;;16.65;15.15;;;21.40;72.40;;;;;;5056357;28;20021;-67
2023/06/20 06:06:32;;;;;;;15.02;13.68;;;21.40;41.30;;;;;;5056500;28;20078;-67
2023/06/20 06:08:58;;;;;;;19.38;15.27;;;21.40;40.90;;;;;;5056615;28;20112;-68
2023/06/20 06:11:25;;;;;;;17.30;15.60;;;21.40;46.60;;;;;;5056570;28;20028;-68
2023/06/20 06:13:51;;;;;;;16.75;15.30;;;21.40;66.00;;;;;;5056104;28;20072;-68
2023/06/20 06:16:17;;;;;;;18.17;16.38;;;21.30;66.90;;;;;;5056562;28;20094;-67
2023/06/20 06:18:43;;;;;;;18.08;16.38;;;21.20;57.40;;;;;;5056120;28;20032;-68
2023/06/20 06:21:09;;;;;;;19.23;16.98;;;21.20;52.20;;;;;;5055966;28;20052;-67
2023/06/20 06:23:34;;;;;;;17.30;15.57;;;21.20;54.30;;;;;;5056120;28;20122;-67
2023/06/20 06:26:00;;;;;;;18.73;16.98;;;21.30;54.30;;;;;;5056138;28;20028;-67
2023/06/20 06:28:28;;;;;;;19.02;17.23;;;21.40;91.50;;;;;;5056007;28;20032;-67
2023/06/20 06:30:54;;;;;;;19.55;17.52;;;21.40;66.30;;;;;;5056059;28;20052;-67
2023/06/20 06:33:20;;;;;;;19.02;17.42;;;21.50;61.80;;;;;;5056082;28;20028;-68
2023/06/20 06:35:46;;;;;;;19.15;16.98;;;21.60;64.30;;;;;;5056038;28;20544;-69
2023/06/20 06:38:12;;;;;;;20.13;17.95;;;21.70;88.80;;;;;;5056083;28;20390;-68
2023/06/20 06:40:37;;;;;;;18.45;16.50;;;21.70;71.60;;;;;;5055734;28;20025;-69
2023/06/20 06:43:03;;;;;;;18.73;16.75;;;21.70;73.40;;;;;;5055061;28;20494;-69
2023/06/20 06:45:29;;;;;;;18.90;17.17;;;21.80;80.30;;;;;;5055691;28;20052;-68
2023/06/20 06:47:54;;;;;;;18.85;16.73;;;21.80;77.30;;;;;;5055920;28;20033;-69
2023/06/20 06:50:20;;;;;;;20.42;17.52;;;21.90;79.90;;;;;;5055821;28;20040;-68
2023/06/20 06:52:46;;;;;;;19.42;17.27;;;22.00;81.00;;;;;;5055708;28;20040;-68
2023/06/20 06:55:11;;;;;;;19.27;17.08;;;21.90;40.80;;;;;;5055257;28;20111;-68
2023/06/20 06:57:37;;;;;;;18.48;16.77;;;21.90;65.80;;;;;;5055595;28;20029;-68
2023/06/20 07:00:09;;;;;;;18.83;16.92;;;21.90;51.00;;;;;;5055581;28;20031;-68
2023/06/20 07:02:35;;;;;;;20.42;15.90;;;22.00;56.40;;;;;;5055208;28;20025;-68
2023/06/20 07:05:01;;;;;;;17.73;15.93;;;22.00;42.00;;;;;;5055505;28;20069;-68
2023/06/20 07:07:26;;;;;;;17.65;15.98;;;22.00;37.20;;;;;;5055284;28;20364;-68
2023/06/20 07:09:51;;;;;;;19.58;16.20;;;22.00;44.80;;;;;;5055539;28;20387;-68
2023/06/20 07:12:17;;;;;;;19.33;15.77;;;21.90;35.80;;;;;;5055247;28;20044;-69
2023/06/20 07:14:42;;;;;;;17.55;15.85;;;21.90;44.70;;;;;;5055030;28;20114;-68
2023/06/20 07:17:08;;;;;;;17.95;15.70;;;21.90;30.80;;;;;;5055110;28;20029;-68
2023/06/20 07:19:33;;;;;;;17.30;15.25;;;21.90;25.70;;;;;;5055006;28;20109;-68
2023/06/20 07:21:59;;;;;;;17.30;15.70;;;22.00;38.10;;;;;;5055237;28;20120;-68
2023/06/20 07:24:24;;;;;;;18.20;15.45;;;22.10;49.20;;;;;;5055058;28;20060;-68
2023/06/20 07:26:50;;;;;;;15.95;14.55;;;22.20;19.10;;;;;;5054952;28;20036;-68
2023/06/20 07:29:16;;;;;;;17.63;15.00;;;22.50;16.20;;;;;;5054977;28;20036;-68
2023/06/20 07:31:41;;;;;;;15.43;13.57;;;22.80;10.00;;;;;;5055084;28;20438;-68
2023/06/20 07:34:07;;;;;;;15.02;13.60;;;22.80;1.00;;;;;;5054620;28;20116;-68
2023/06/20 07:36:32;;;;;;;15.38;13.38;;;23.00;1.00;;;;;;5054782;28;20382;-68
2023/06/20 07:38:58;;;;;;;13.98;12.73;;;23.00;1.00;;;;;;5054770;28;20021;-69
2023/06/20 07:41:23;;;;;;;14.38;12.20;;;23.00;1.00;;;;;;5054767;28;20141;-68
2023/06/20 07:43:49;;;;;;;14.32;13.00;;;23.00;1.00;;;;;;5054856;28;20036;-69
2023/06/20 07:46:14;;;;;;;12.75;11.55;;;22.90;1.00;;;;;;5054874;28;20037;-68
2023/06/20 07:48:40;;;;;;;14.35;12.88;;;23.00;1.00;;;;;;5054416;28;20474;-69
2023/06/20 07:51:05;;;;;;;13.85;12.55;;;22.90;1.00;;;;;;5054599;28;20032;-69
2023/06/20 07:53:31;;;;;;;14.30;12.25;;;22.80;1.00;;;;;;5053270;28;20039;-69
2023/06/20 07:55:56;;;;;;;13.13;11.75;;;22.90;1.00;;;;;;5054513;28;20025;-69
2023/06/20 07:58:22;;;;;;;13.73;12.35;;;22.80;1.00;;;;;;5054262;28;20071;-69
2023/06/20 08:00:47;;;;;;;14.00;12.30;;;23.00;4.50;;;;;;5054440;28;20449;-69
2023/06/20 08:03:13;;;;;;;12.65;11.45;;;23.00;1.00;;;;;;5054369;28;20040;-69
2023/06/20 08:05:38;;;;;;;13.75;12.50;;;23.10;1.00;;;;;;5054145;28;20035;-69
2023/06/20 08:08:04;;;;;;;14.48;13.02;;;23.10;1.00;;;;;;5054331;28;20398;-69
2023/06/20 08:10:30;;;;;;;14.55;13.05;;;23.10;1.00;;;;;;5054135;28;20025;-69
2023/06/20 08:12:55;;;;;;;14.60;13.10;;;23.20;1.00;;;;;;5053891;28;20041;-69
2023/06/20 08:15:21;;;;;;;14.57;12.68;;;23.10;1.00;;;;;;5054164;28;20061;-69
2023/06/20 08:17:46;;;;;;;16.35;13.00;;;23.20;3.30;;;;;;5053912;28;20033;-70
2023/06/20 08:20:12;;;;;;;14.77;13.25;;;23.30;1.00;;;;;;5054017;28;20036;-69
2023/06/20 08:22:38;;;;;;;14.48;12.93;;;23.20;1.00;;;;;;5053724;28;20025;-68
2023/06/20 08:25:04;;;;;;;16.80;12.68;;;23.40;1.00;;;;;;5054002;28;20087;-68
2023/06/20 08:27:29;;;;;;;13.25;12.05;;;23.50;1.00;;;;;;5053847;28;20029;-69
2023/06/20 08:29:55;;;;;;;13.63;12.00;;;23.70;1.00;;;;;;5053715;28;20036;-69
2023/06/20 08:32:21;;;;;;;13.75;12.35;;;24.00;1.00;;;;;;5053804;28;20033;-69
2023/06/20 08:34:49;;;;;;;12.80;11.43;;;24.30;1.00;;;;;;5053692;28;20033;-69
2023/06/20 08:37:16;;;;;;;13.82;10.57;;;24.70;1.00;;;;;;5054001;28;20033;-69
2023/06/20 08:39:42;;;;;;;11.18;10.05;;;25.30;1.00;;;;;;5053284;28;20120;-69
2023/06/20 08:42:09;;;;;;;11.90;10.65;;;25.40;1.00;;;;;;5053555;28;20104;-69
2023/06/20 08:44:35;;;;;;;11.05;9.95;;;25.50;1.00;;;;;;5053410;28;20079;-69
2023/06/20 08:47:01;;;;;;;10.63;9.52;;;25.80;1.00;;;;;;5053723;28;20024;-70
2023/06/20 08:49:26;;;;;;;10.80;9.70;;;27.30;99.90;;;;;;5053239;28;20536;-70
2023/06/20 08:51:57;;;;;;;9.98;9.07;;;28.70;1.00;;;;;;5053654;28;20032;-70
2023/06/20 08:54:25;;;;;;;12.10;8.95;;;30.40;99.90;;;;;;5053261;28;20032;-70
2023/06/20 08:56:50;;;;;;;9.90;8.85;;;30.70;99.90;;;;;;5053391;28;20111;-70
2023/06/20 08:59:21;;;;;;;8.95;7.97;;;31.20;1.00;;;;;;5053266;28;20451;-70
2023/06/20 09:01:47;;;;;;;9.15;8.43;;;31.40;27.40;;;;;;5053215;28;20100;-70
2023/06/20 09:04:12;;;;;;;8.02;7.32;;;31.10;1.00;;;;;;5053170;28;20060;-70
2023/06/20 09:06:38;;;;;;;7.53;6.82;;;31.90;99.90;;;;;;5053104;28;20475;-70
2023/06/20 09:09:14;;;;;;;8.00;7.30;;;32.00;59.10;;;;;;5052953;28;20044;-71
2023/06/20 09:11:39;;;;;;;8.75;7.43;;;30.90;99.90;;;;;;5052762;28;20103;-70
2023/06/20 09:14:05;;;;;;;8.38;7.60;;;30.90;99.90;;;;;;5052627;28;20080;-70
2023/06/20 09:16:32;;;;;;;8.45;7.55;;;31.20;99.90;;;;;;5053201;28;20052;-70
2023/06/20 09:19:00;;;;;;;7.57;6.88;;;31.00;99.90;;;;;;5053256;28;20071;-70
2023/06/20 09:21:26;;;;;;;7.85;7.25;;;31.50;99.90;;;;;;5052882;28;20053;-71
2023/06/20 09:24:03;;;;;;;8.00;6.75;;;32.10;86.90;;;;;;5052973;28;20491;-70
2023/06/20 09:26:30;;;;;;;8.00;7.30;;;32.20;99.90;;;;;;5052760;28;20033;-71
2023/06/20 09:29:14;;;;;;;7.68;6.97;;;32.50;99.90;;;;;;5052795;28;20037;-71
2023/06/20 09:31:46;;;;;;;8.07;6.80;;;32.30;99.90;;;;;;5052930;28;20029;-70
2023/06/20 09:34:13;;;;;;;6.90;5.72;;;33.00;2.80;;;;;;5052745;28;20437;-70
2023/06/20 09:36:40;;;;;;;7.00;6.40;;;32.70;18.20;;;;;;5053113;28;20029;-71
2023/06/20 09:39:09;;;;;;;7.15;6.55;;;32.60;99.90;;;;;;5052846;28;20129;-70
2023/06/20 09:41:35;;;;;;;7.47;6.65;;;32.90;99.90;;;;;;5052832;28;20032;-71
2023/06/20 09:44:00;;;;;;;7.03;6.32;;;33.00;99.90;;;;;;5052650;28;20033;-71
2023/06/20 09:46:26;;;;;;;6.65;6.05;;;33.30;1.00;;;;;;5052652;28;20032;-71
2023/06/20 09:48:52;;;;;;;6.75;5.90;;;32.20;1.00;;;;;;5052814;28;20402;-71
2023/06/20 09:51:18;;;;;;;6.70;6.10;;;32.60;1.00;;;;;;5052945;28;20033;-71
2023/06/20 09:53:51;;;;;;;7.03;6.32;;;31.70;1.00;;;;;;5052779;28;20171;-70
2023/06/20 09:56:19;;;;;;;8.02;7.32;;;32.20;1.00;;;;;;5052943;28;20025;-71
2023/06/20 09:58:45;;;;;;;8.10;7.30;;;31.70;31.10;;;;;;5052787;28;20029;-69
2023/06/20 10:01:14;;;;;;;8.18;6.93;;;31.70;99.90;;;;;;5052528;28;20445;-71
2023/06/20 10:03:41;;;;;;;7.90;6.90;;;32.60;9.20;;;;;;5052276;28;20111;-70
2023/06/20 10:06:08;;;;;;;7.00;6.40;;;33.40;1.00;;;;;;5052793;28;20075;-70
2023/06/20 10:08:35;;;;;;;6.80;6.10;;;33.50;28.50;;;;;;5052360;28;20029;-70
2023/06/20 10:11:01;;;;;;;6.57;5.78;;;32.70;1.00;;;;;;5052623;28;20489;-69
2023/06/20 10:13:28;;;;;;;6.78;6.18;;;31.70;1.00;;;;;;5052426;28;20057;-69
2023/06/20 10:15:54;;;;;;;5.88;5.40;;;31.90;11.90;;;;;;5052557;28;20482;-69
2023/06/20 10:18:40;;;;;;;6.22;5.07;;;32.00;1.00;;;;;;5055904;28;20048;-69
2023/06/20 10:21:07;;;;;;;6.57;5.97;;;32.60;1.00;;;;;;5056261;28;20048;-70
2023/06/20 10:23:37;;;;;;;8.05;6.38;;;33.00;1.00;;;;;;5056225;28;20025;-70
2023/06/20 10:26:07;;;;;;;6.78;5.35;;;33.40;1.00;;;;;;5056291;28;20032;-70
2023/06/20 10:28:33;;;;;;;6.35;5.85;;;33.50;1.00;;;;;;5056124;28;20023;-70
2023/06/20 10:31:00;;;;;;;6.50;6.00;;;32.50;1.00;;;;;;5056296;28;20033;-70
2023/06/20 10:33:31;;;;;;;6.72;6.15;;;32.40;1.00;;;;;;5055982;28;20481;-71
2023/06/20 10:36:16;;;;;;;6.63;6.03;;;32.40;16.00;;;;;;5055949;28;20104;-70
2023/06/20 10:41:33;;;;;;;7.13;6.25;;;32.40;1.00;;;;;;5110880;27;20796;-69
2023/06/20 10:44:01;;;;;;;6.35;5.85;;;32.20;16.10;;;;;;5111150;28;20035;-69
2023/06/20 10:46:46;;;;;;;7.55;6.22;;;31.30;1.00;;;;;;5111132;28;20085;-69
2023/06/20 10:49:12;;;;;;;7.72;7.00;;;31.50;84.10;;;;;;5111092;28;20072;-70
2023/06/20 10:51:55;;;;;;;7.63;7.03;;;31.50;92.50;;;;;;5111279;28;20434;-70
2023/06/20 10:54:21;;;;;;;7.28;6.65;;;30.80;99.90;;;;;;5108509;28;20385;-69
2023/06/20 10:56:47;;;;;;;7.35;6.65;;;30.60;99.90;;;;;;5104515;28;20057;-69
2023/06/20 10:59:15;;;;;;;7.20;6.60;;;31.10;1.00;;;;;;5108176;28;20784;-70
2023/06/20 11:01:41;;;;;;;6.50;6.00;;;31.70;1.00;;;;;;5107671;28;20020;-70
2023/06/20 11:04:08;;;;;;;9.27;7.00;;;30.90;1.00;;;;;;5098653;28;20072;-69
2023/06/20 11:06:33;;;;;;;6.68;6.07;;;30.30;1.00;;;;;;5108088;28;20035;-69
2023/06/20 11:08:59;;;;;;;6.35;5.78;;;30.70;1.00;;;;;;5108729;28;20020;-69
2023/06/20 11:11:33;;;;;;;6.53;6.03;;;31.10;1.00;;;;;;5105696;28;20040;-70
2023/06/20 11:14:17;;;;;;;6.65;6.00;;;31.10;1.00;;;;;;5095768;28;20441;-70
2023/06/20 11:16:43;;;;;;;5.90;5.40;;;30.90;99.90;;;;;;5109417;28;20036;-70
2023/06/20 11:19:09;;;;;;;6.10;5.60;;;31.10;99.90;;;;;;5108948;28;20103;-69
2023/06/20 11:21:35;;;;;;;6.13;5.63;;;31.10;99.90;;;;;;5110118;28;20040;-70
2023/06/20 11:24:01;;;;;;;6.45;5.95;;;30.90;99.90;;;;;;5109966;28;20077;-70
2023/06/20 11:26:28;;;;;;;6.18;5.60;;;30.70;99.90;;;;;;5108068;28;20016;-70
2023/06/20 11:28:58;;;;;;;5.68;5.28;;;30.50;99.90;;;;;;5110395;28;20100;-70
2023/06/20 11:31:24;;;;;;;5.57;5.05;;;30.10;1.00;;;;;;5099208;28;20070;-70
2023/06/20 11:34:00;;;;;;;5.45;5.05;;;30.30;1.00;;;;;;5098351;28;20032;-70
2023/06/20 11:36:26;;;;;;;5.80;5.13;;;30.90;99.90;;;;;;5106166;28;20063;-70
2023/06/20 11:38:53;;;;;;;5.70;5.20;;;31.40;99.90;;;;;;5099554;28;20058;-70
2023/06/20 11:41:30;;;;;;;7.75;5.97;;;31.40;99.90;;;;;;5092101;28;20160;-70
2023/06/20 11:43:55;;;;;;;6.80;6.20;;;30.60;99.90;;;;;;5108348;27;20047;-70
2023/06/20 11:46:21;;;;;;;6.38;5.72;;;30.10;1.00;;;;;;5107496;28;20020;-70
2023/06/20 11:48:49;;;;;;;6.72;5.72;;;30.10;1.00;;;;;;5109627;28;20046;-70
2023/06/20 11:51:15;;;;;;;6.30;5.70;;;30.30;1.00;;;;;;5105709;28;20074;-70
2023/06/20 11:53:41;;;;;;;8.90;5.95;;;30.80;99.90;;;;;;5095129;28;20059;-70
2023/06/20 11:56:08;;;;;;;6.97;6.38;;;30.10;1.00;;;;;;5095359;28;20024;-70
2023/06/20 11:58:46;;;;;;;6.30;5.80;;;;;;;;;;5082325;28;20415;-70
2023/06/20 12:01:28;;;;;;;6.65;6.00;;;29.40;1.00;;;;;;5094012;28;20122;-70
2023/06/20 12:04:04;;;;;;;7.30;6.03;;;29.40;1.00;;;;;;5094888;28;20089;-70
2023/06/20 12:06:33;;;;;;;7.78;5.85;;;29.60;1.00;;;;;;5100232;28;20084;-70
2023/06/20 12:09:06;;;;;;;6.90;6.15;;;29.80;23.30;;;;;;5096199;28;20083;-70
2023/06/20 12:11:32;;;;;;;7.72;6.00;;;29.80;1.00;;;;;;5094704;28;20035;-70
2023/06/20 12:13:57;;;;;;;7.85;6.38;;;29.40;1.00;;;;;;5094772;28;20036;-71
2023/06/20 12:16:24;;;;;;;6.22;5.63;;;29.40;1.00;;;;;;5074440;28;20040;-70
2023/06/20 12:18:51;;;;;;;6.88;5.75;;;29.60;1.00;;;;;;5076328;28;20029;-70
2023/06/20 12:21:18;;;;;;;6.25;5.65;;;30.30;1.00;;;;;;5075012;28;20058;-70
2023/06/20 12:23:43;;;;;;;8.60;6.07;;;30.80;1.00;;;;;;5076778;28;20021;-70
2023/06/20 12:26:10;;;;;;;6.95;6.20;;;31.00;1.00;;;;;;5073061;28;20017;-70
2023/06/20 12:28:36;;;;;;;6.82;5.82;;;31.20;99.90;;;;;;5072389;28;20032;-70
2023/06/20 12:31:04;;;;;;;6.25;5.65;;;31.10;1.00;;;;;;5070548;28;20020;-70
2023/06/20 12:33:29;;;;;;;6.07;5.50;;;30.60;99.90;;;;;;5074534;28;20505;-70
2023/06/20 12:35:55;;;;;;;6.50;5.90;;;30.70;99.90;;;;;;5068061;28;20037;-70
2023/06/20 12:38:21;;;;;;;6.82;6.05;;;30.40;99.90;;;;;;5055065;28;20039;-70
2023/06/20 12:40:46;;;;;;;7.03;6.35;;;30.10;99.90;;;;;;5068023;28;20040;-70
2023/06/20 12:43:12;;;;;;;6.80;6.10;;;30.00;99.90;;;;;;5071516;28;20100;-70